sensor_id;sensor_type;location;lat;lon;timestamp;pressure;altitude;pressure_sealevel;temperature;humidity
7026;BME280;3554;42.132;24.786;2023-07-22T00:01:32;99097.25;;;26.87;100.00
7026;BME280;3554;42.132;24.786;2023-07-22T00:03:59;99097.13;;;26.80;100.00
7026;BME280;3554;42.132;24.786;2023-07-22T00:06:26;99072.28;;;26.62;100.00
7026;BME280;3554;42.132;24.786;2023-07-22T00:08:53;99110.84;;;26.93;100.00
7026;BME280;3554;42.132;24.786;2023-07-22T00:11:20;99102.50;;;26.80;100.00
7026;BME280;3554;42.132;24.786;2023-07-22T00:13:48;99098.47;;;26.84;100.00
7026;BME280;3554;42.132;24.786;2023-07-22T00:16:15;99095.47;;;26.71;100.00
7026;BME280;3554;42.132;24.786;2023-07-22T00:18:41;99095.81;;;26.68;100.00
7026;BME280;3554;42.132;24.786;2023-07-22T00:21:08;99100.47;;;26.58;100.00
7026;BME280;3554;42.132;24.786;2023-07-22T00:23:36;99107.72;;;26.58;100.00
7026;BME280;3554;42.132;24.786;2023-07-22T00:26:02;99109.88;;;26.62;100.00
7026;BME280;3554;42.132;24.786;2023-07-22T00:28:29;99106.88;;;26.73;100.00
7026;BME280;3554;42.132;24.786;2023-07-22T00:30:57;99107.03;;;26.64;100.00
7026;BME280;3554;42.132;24.786;2023-07-22T00:33:26;99093.13;;;26.68;100.00
7026;BME280;3554;42.132;24.786;2023-07-22T00:35:53;99100.00;;;26.71;100.00
7026;BME280;3554;42.132;24.786;2023-07-22T00:38:19;99112.56;;;26.78;100.00
7026;BME280;3554;42.132;24.786;2023-07-22T00:40:46;99126.16;;;26.85;100.00
7026;BME280;3554;42.132;24.786;2023-07-22T00:43:13;99108.88;;;26.87;100.00
7026;BME280;3554;42.132;24.786;2023-07-22T00:45:40;99108.88;;;26.79;100.00
7026;BME280;3554;42.132;24.786;2023-07-22T00:48:09;99098.66;;;26.75;100.00
7026;BME280;3554;42.132;24.786;2023-07-22T00:50:38;99110.06;;;26.69;100.00
7026;BME280;3554;42.132;24.786;2023-07-22T00:53:05;99113.25;;;26.72;100.00
7026;BME280;3554;42.132;24.786;2023-07-22T00:55:33;99119.63;;;26.71;100.00
7026;BME280;3554;42.132;24.786;2023-07-22T00:57:59;99127.69;;;26.55;100.00
7026;BME280;3554;42.132;24.786;2023-07-22T01:00:26;99129.53;;;26.47;100.00
7026;BME280;3554;42.132;24.786;2023-07-22T01:02:53;99124.66;;;26.58;100.00
7026;BME280;3554;42.132;24.786;2023-07-22T01:05:21;99127.16;;;26.60;100.00
7026;BME280;3554;42.132;24.786;2023-07-22T01:07:48;99129.19;;;26.58;100.00
7026;BME280;3554;42.132;24.786;2023-07-22T01:10:15;99132.72;;;26.50;100.00
7026;BME280;3554;42.132;24.786;2023-07-22T01:12:43;99128.19;;;26.34;100.00
7026;BME280;3554;42.132;24.786;2023-07-22T01:15:10;99137.91;;;26.43;100.00
7026;BME280;3554;42.132;24.786;2023-07-22T01:17:38;99140.44;;;26.45;100.00
7026;BME280;3554;42.132;24.786;2023-07-22T01:20:06;99133.72;;;26.41;100.00
7026;BME280;3554;42.132;24.786;2023-07-22T01:22:36;99122.97;;;26.25;100.00
7026;BME280;3554;42.132;24.786;2023-07-22T01:25:07;99130.19;;;26.24;100.00
7026;BME280;3554;42.132;24.786;2023-07-22T01:27:34;99138.41;;;26.15;100.00
7026;BME280;3554;42.132;24.786;2023-07-22T01:30:01;99150.16;;;26.30;100.00
7026;BME280;3554;42.132;24.786;2023-07-22T01:32:28;99149.16;;;26.39;100.00
7026;BME280;3554;42.132;24.786;2023-07-22T01:34:55;99131.19;;;26.31;100.00
7026;BME280;3554;42.132;24.786;2023-07-22T01:37:22;99147.63;;;26.20;100.00
7026;BME280;3554;42.132;24.786;2023-07-22T01:39:49;99139.75;;;26.27;100.00
7026;BME280;3554;42.132;24.786;2023-07-22T01:42:18;99134.53;;;26.17;100.00
7026;BME280;3554;42.132;24.786;2023-07-22T01:44:45;99148.31;;;26.30;100.00
7026;BME280;3554;42.132;24.786;2023-07-22T01:47:11;99151.19;;;26.29;100.00
7026;BME280;3554;42.132;24.786;2023-07-22T01:49:38;99128.19;;;26.18;100.00
7026;BME280;3554;42.132;24.786;2023-07-22T01:52:06;99156.53;;;26.37;100.00
7026;BME280;3554;42.132;24.786;2023-07-22T01:54:33;99145.81;;;26.29;100.00
7026;BME280;3554;42.132;24.786;2023-07-22T01:56:59;99146.16;;;26.34;100.00
7026;BME280;3554;42.132;24.786;2023-07-22T01:59:27;99150.50;;;26.35;100.00
7026;BME280;3554;42.132;24.786;2023-07-22T02:01:54;99147.97;;;26.33;100.00
7026;BME280;3554;42.132;24.786;2023-07-22T02:04:21;99141.44;;;26.28;100.00
7026;BME280;3554;42.132;24.786;2023-07-22T02:06:48;99149.47;;;26.28;100.00
7026;BME280;3554;42.132;24.786;2023-07-22T02:09:15;99157.19;;;26.23;100.00
7026;BME280;3554;42.132;24.786;2023-07-22T02:11:41;99143.63;;;26.16;100.00
7026;BME280;3554;42.132;24.786;2023-07-22T02:14:08;99160.03;;;26.29;100.00
7026;BME280;3554;42.132;24.786;2023-07-22T02:16:37;99144.78;;;26.22;100.00
7026;BME280;3554;42.132;24.786;2023-07-22T02:19:04;99156.34;;;26.14;100.00
7026;BME280;3554;42.132;24.786;2023-07-22T02:21:30;99152.31;;;26.10;100.00
7026;BME280;3554;42.132;24.786;2023-07-22T02:23:58;99159.69;;;26.08;100.00
7026;BME280;3554;42.132;24.786;2023-07-22T02:26:24;99160.13;;;25.88;100.00
7026;BME280;3554;42.132;24.786;2023-07-22T02:28:51;99175.84;;;25.75;100.00
7026;BME280;3554;42.132;24.786;2023-07-22T02:31:18;99182.91;;;25.76;100.00
7026;BME280;3554;42.132;24.786;2023-07-22T02:33:49;99174.84;;;25.76;100.00
7026;BME280;3554;42.132;24.786;2023-07-22T02:36:15;99175.53;;;25.86;100.00
7026;BME280;3554;42.132;24.786;2023-07-22T02:38:42;99174.53;;;25.87;100.00
7026;BME280;3554;42.132;24.786;2023-07-22T02:41:09;99168.28;;;25.70;100.00
7026;BME280;3554;42.132;24.786;2023-07-22T02:43:36;99125.63;;;25.43;100.00
7026;BME280;3554;42.132;24.786;2023-07-22T02:46:04;99156.72;;;25.78;100.00
7026;BME280;3554;42.132;24.786;2023-07-22T02:48:33;99161.09;;;25.79;100.00
7026;BME280;3554;42.132;24.786;2023-07-22T02:51:03;99151.06;;;25.81;100.00
7026;BME280;3554;42.132;24.786;2023-07-22T02:53:31;99154.88;;;25.70;100.00
7026;BME280;3554;42.132;24.786;2023-07-22T02:55:58;99160.03;;;25.64;100.00
7026;BME280;3554;42.132;24.786;2023-07-22T02:58:25;99095.38;;;25.25;100.00
7026;BME280;3554;42.132;24.786;2023-07-22T03:00:52;99159.53;;;25.60;100.00
7026;BME280;3554;42.132;24.786;2023-07-22T03:03:19;99162.03;;;25.62;100.00
7026;BME280;3554;42.132;24.786;2023-07-22T03:05:46;99162.03;;;25.62;100.00
7026;BME280;3554;42.132;24.786;2023-07-22T03:08:14;99161.22;;;25.61;100.00
7026;BME280;3554;42.132;24.786;2023-07-22T03:10:41;99162.56;;;25.65;100.00
7026;BME280;3554;42.132;24.786;2023-07-22T03:13:12;99161.72;;;25.65;100.00
7026;BME280;3554;42.132;24.786;2023-07-22T03:15:39;99163.63;;;25.72;100.00
7026;BME280;3554;42.132;24.786;2023-07-22T03:18:06;99146.47;;;25.65;100.00
7026;BME280;3554;42.132;24.786;2023-07-22T03:20:33;99152.34;;;25.69;100.00
7026;BME280;3554;42.132;24.786;2023-07-22T03:23:00;99155.34;;;25.66;100.00
7026;BME280;3554;42.132;24.786;2023-07-22T03:25:28;99125.63;;;25.51;100.00
7026;BME280;3554;42.132;24.786;2023-07-22T03:27:55;99158.09;;;25.82;100.00
7026;BME280;3554;42.132;24.786;2023-07-22T03:30:22;99146.66;;;25.72;100.00
7026;BME280;3554;42.132;24.786;2023-07-22T03:32:49;99165.47;;;25.80;100.00
7026;BME280;3554;42.132;24.786;2023-07-22T03:35:16;99161.78;;;25.81;100.00
7026;BME280;3554;42.132;24.786;2023-07-22T03:37:43;99171.38;;;25.91;100.00
7026;BME280;3554;42.132;24.786;2023-07-22T03:40:10;99165.56;;;26.04;100.00
7026;BME280;3554;42.132;24.786;2023-07-22T03:42:44;99172.97;;;26.26;100.00
7026;BME280;3554;42.132;24.786;2023-07-22T03:45:11;99172.16;;;26.41;100.00
7026;BME280;3554;42.132;24.786;2023-07-22T03:47:38;99180.22;;;26.66;100.00
7026;BME280;3554;42.132;24.786;2023-07-22T03:50:07;99169.31;;;26.91;100.00
7026;BME280;3554;42.132;24.786;2023-07-22T03:52:34;99163.94;;;26.91;100.00
7026;BME280;3554;42.132;24.786;2023-07-22T03:55:00;99173.28;;;27.19;100.00
7026;BME280;3554;42.132;24.786;2023-07-22T03:57:27;99167.88;;;27.35;100.00
7026;BME280;3554;42.132;24.786;2023-07-22T03:59:56;99164.66;;;27.48;100.00
7026;BME280;3554;42.132;24.786;2023-07-22T04:02:23;99169.56;;;27.75;100.00
7026;BME280;3554;42.132;24.786;2023-07-22T04:04:50;99160.06;;;27.95;100.00
7026;BME280;3554;42.132;24.786;2023-07-22T04:07:17;99173.53;;;28.18;100.00
7026;BME280;3554;42.132;24.786;2023-07-22T04:09:44;99173.44;;;28.34;100.00
7026;BME280;3554;42.132;24.786;2023-07-22T04:12:11;99185.00;;;28.65;100.00
7026;BME280;3554;42.132;24.786;2023-07-22T04:14:38;99165.13;;;28.66;100.00
7026;BME280;3554;42.132;24.786;2023-07-22T04:17:07;99183.38;;;28.79;100.00
7026;BME280;3554;42.132;24.786;2023-07-22T04:19:34;99181.38;;;28.95;100.00
7026;BME280;3554;42.132;24.786;2023-07-22T04:22:01;99151.34;;;28.84;100.00
7026;BME280;3554;42.132;24.786;2023-07-22T04:24:29;99187.84;;;29.23;100.00
7026;BME280;3554;42.132;24.786;2023-07-22T04:26:57;99184.78;;;29.41;100.00
7026;BME280;3554;42.132;24.786;2023-07-22T04:29:23;99184.59;;;29.42;100.00
7026;BME280;3554;42.132;24.786;2023-07-22T04:31:50;99184.91;;;29.47;100.00
7026;BME280;3554;42.132;24.786;2023-07-22T04:34:18;99181.88;;;29.57;100.00
7026;BME280;3554;42.132;24.786;2023-07-22T04:36:45;99187.03;;;29.81;100.00
7026;BME280;3554;42.132;24.786;2023-07-22T04:39:12;99182.81;;;29.93;100.00
7026;BME280;3554;42.132;24.786;2023-07-22T04:41:39;99185.13;;;29.96;100.00
7026;BME280;3554;42.132;24.786;2023-07-22T04:44:05;99165.63;;;29.80;100.00
7026;BME280;3554;42.132;24.786;2023-07-22T04:46:33;99192.44;;;29.81;100.00
7026;BME280;3554;42.132;24.786;2023-07-22T04:49:01;99177.16;;;29.74;100.00
7026;BME280;3554;42.132;24.786;2023-07-22T04:51:30;99186.88;;;30.04;100.00
7026;BME280;3554;42.132;24.786;2023-07-22T04:53:57;99177.81;;;30.26;100.00
7026;BME280;3554;42.132;24.786;2023-07-22T04:56:24;99185.47;;;30.43;100.00
7026;BME280;3554;42.132;24.786;2023-07-22T04:58:50;99180.53;;;30.26;100.00
7026;BME280;3554;42.132;24.786;2023-07-22T05:01:17;99188.44;;;30.27;100.00
7026;BME280;3554;42.132;24.786;2023-07-22T05:03:44;99197.19;;;30.50;100.00
7026;BME280;3554;42.132;24.786;2023-07-22T05:06:11;99198.53;;;30.61;100.00
7026;BME280;3554;42.132;24.786;2023-07-22T05:08:39;99185.97;;;29.97;100.00
7026;BME280;3554;42.132;24.786;2023-07-22T05:11:07;99191.19;;;30.34;100.00
7026;BME280;3554;42.132;24.786;2023-07-22T05:13:34;99190.63;;;30.60;100.00
7026;BME280;3554;42.132;24.786;2023-07-22T05:16:00;99182.06;;;30.56;100.00
7026;BME280;3554;42.132;24.786;2023-07-22T05:18:28;99198.22;;;30.71;100.00
7026;BME280;3554;42.132;24.786;2023-07-22T05:20:54;99189.31;;;30.77;100.00
7026;BME280;3554;42.132;24.786;2023-07-22T05:23:21;99189.38;;;30.83;100.00
7026;BME280;3554;42.132;24.786;2023-07-22T05:25:52;99192.34;;;30.25;100.00
7026;BME280;3554;42.132;24.786;2023-07-22T05:28:19;99195.66;;;30.41;100.00
7026;BME280;3554;42.132;24.786;2023-07-22T05:30:46;99201.59;;;30.37;100.00
7026;BME280;3554;42.132;24.786;2023-07-22T05:33:13;99202.28;;;30.81;100.00
7026;BME280;3554;42.132;24.786;2023-07-22T05:35:40;99204.50;;;30.57;100.00
7026;BME280;3554;42.132;24.786;2023-07-22T05:38:07;99198.97;;;30.65;100.00
7026;BME280;3554;42.132;24.786;2023-07-22T05:40:33;99198.03;;;30.51;100.00
7026;BME280;3554;42.132;24.786;2023-07-22T05:43:02;99196.22;;;30.58;100.00
7026;BME280;3554;42.132;24.786;2023-07-22T05:45:28;99201.09;;;30.69;100.00
7026;BME280;3554;42.132;24.786;2023-07-22T05:47:55;99202.44;;;30.80;100.00
7026;BME280;3554;42.132;24.786;2023-07-22T05:50:22;99193.38;;;30.66;100.00
7026;BME280;3554;42.132;24.786;2023-07-22T05:52:49;99196.22;;;30.79;100.00
7026;BME280;3554;42.132;24.786;2023-07-22T05:55:16;99202.38;;;30.94;100.00
7026;BME280;3554;42.132;24.786;2023-07-22T05:57:42;99198.38;;;30.69;100.00
7026;BME280;3554;42.132;24.786;2023-07-22T06:00:12;99194.53;;;30.57;100.00
7026;BME280;3554;42.132;24.786;2023-07-22T06:02:39;99165.22;;;31.03;100.00
7026;BME280;3554;42.132;24.786;2023-07-22T06:05:07;99180.72;;;30.67;100.00
7026;BME280;3554;42.132;24.786;2023-07-22T06:07:33;99188.75;;;30.39;100.00
7026;BME280;3554;42.132;24.786;2023-07-22T06:10:01;99190.81;;;30.58;100.00
7026;BME280;3554;42.132;24.786;2023-07-22T06:12:27;99191.34;;;30.47;100.00
7026;BME280;3554;42.132;24.786;2023-07-22T06:14:54;99185.69;;;30.06;100.00
7026;BME280;3554;42.132;24.786;2023-07-22T06:17:22;99195.09;;;29.67;100.00
7026;BME280;3554;42.132;24.786;2023-07-22T06:19:49;99186.78;;;30.12;100.00
7026;BME280;3554;42.132;24.786;2023-07-22T06:22:16;99186.44;;;30.57;100.00
7026;BME280;3554;42.132;24.786;2023-07-22T06:24:43;99182.81;;;30.71;100.00
7026;BME280;3554;42.132;24.786;2023-07-22T06:27:10;99185.28;;;31.15;100.00
7026;BME280;3554;42.132;24.786;2023-07-22T06:29:36;99188.47;;;31.52;100.00
7026;BME280;3554;42.132;24.786;2023-07-22T06:32:04;99183.31;;;31.58;100.00
7026;BME280;3554;42.132;24.786;2023-07-22T06:34:33;99200.44;;;31.78;100.00
7026;BME280;3554;42.132;24.786;2023-07-22T06:36:59;99184.25;;;31.43;100.00
7026;BME280;3554;42.132;24.786;2023-07-22T06:39:27;99182.97;;;31.12;100.00
7026;BME280;3554;42.132;24.786;2023-07-22T06:41:53;99201.44;;;31.29;100.00
7026;BME280;3554;42.132;24.786;2023-07-22T06:44:20;99194.72;;;31.25;100.00
7026;BME280;3554;42.132;24.786;2023-07-22T06:46:47;99185.19;;;31.02;100.00
7026;BME280;3554;42.132;24.786;2023-07-22T06:49:14;99172.28;;;30.97;100.00
7026;BME280;3554;42.132;24.786;2023-07-22T06:51:42;99186.16;;;31.22;100.00
7026;BME280;3554;42.132;24.786;2023-07-22T06:54:09;99195.09;;;31.84;100.00
7026;BME280;3554;42.132;24.786;2023-07-22T06:56:35;99190.69;;;31.83;100.00
7026;BME280;3554;42.132;24.786;2023-07-22T06:59:02;99200.34;;;31.92;100.00
7026;BME280;3554;42.132;24.786;2023-07-22T07:01:29;99204.56;;;32.01;100.00
7026;BME280;3554;42.132;24.786;2023-07-22T07:03:56;99207.34;;;32.27;100.00
7026;BME280;3554;42.132;24.786;2023-07-22T07:06:22;99213.22;;;32.31;100.00
7026;BME280;3554;42.132;24.786;2023-07-22T07:08:51;99204.44;;;32.29;100.00
7026;BME280;3554;42.132;24.786;2023-07-22T07:11:17;99193.41;;;32.30;100.00
7026;BME280;3554;42.132;24.786;2023-07-22T07:13:44;99194.84;;;32.33;100.00
7026;BME280;3554;42.132;24.786;2023-07-22T07:16:22;99190.16;;;32.61;100.00
7026;BME280;3554;42.132;24.786;2023-07-22T07:18:49;99197.25;;;32.75;100.00
7026;BME280;3554;42.132;24.786;2023-07-22T07:21:16;99191.19;;;32.86;100.00
7026;BME280;3554;42.132;24.786;2023-07-22T07:23:43;99186.59;;;32.87;100.00
7026;BME280;3554;42.132;24.786;2023-07-22T07:26:11;99189.09;;;32.69;100.00
7026;BME280;3554;42.132;24.786;2023-07-22T07:28:38;99188.06;;;32.89;100.00
7026;BME280;3554;42.132;24.786;2023-07-22T07:31:06;99192.25;;;32.85;100.00
7026;BME280;3554;42.132;24.786;2023-07-22T07:33:34;99181.78;;;32.56;100.00
7026;BME280;3554;42.132;24.786;2023-07-22T07:36:02;99184.09;;;32.66;100.00
7026;BME280;3554;42.132;24.786;2023-07-22T07:38:30;99185.16;;;32.71;100.00
7026;BME280;3554;42.132;24.786;2023-07-22T07:40:58;99173.91;;;32.81;100.00
7026;BME280;3554;42.132;24.786;2023-07-22T07:43:26;99184.94;;;33.18;100.00
7026;BME280;3554;42.132;24.786;2023-07-22T07:46:12;99181.38;;;32.85;100.00
7026;BME280;3554;42.132;24.786;2023-07-22T07:48:39;99186.00;;;33.17;100.00
7026;BME280;3554;42.132;24.786;2023-07-22T07:51:06;99189.94;;;33.28;100.00
7026;BME280;3554;42.132;24.786;2023-07-22T07:53:32;99188.88;;;33.55;100.00
7026;BME280;3554;42.132;24.786;2023-07-22T07:55:59;99200.13;;;33.52;100.00
7026;BME280;3554;42.132;24.786;2023-07-22T07:58:27;99198.44;;;33.71;100.00
7026;BME280;3554;42.132;24.786;2023-07-22T08:00:54;99196.53;;;33.78;100.00
7026;BME280;3554;42.132;24.786;2023-07-22T08:03:21;99206.94;;;33.87;100.00
7026;BME280;3554;42.132;24.786;2023-07-22T08:05:48;99199.19;;;33.84;100.00
7026;BME280;3554;42.132;24.786;2023-07-22T08:08:14;99201.06;;;33.97;100.00
7026;BME280;3554;42.132;24.786;2023-07-22T08:10:41;99191.84;;;33.21;100.00
7026;BME280;3554;42.132;24.786;2023-07-22T08:13:09;99191.84;;;33.21;100.00
7026;BME280;3554;42.132;24.786;2023-07-22T08:15:38;99185.75;;;32.86;100.00
7026;BME280;3554;42.132;24.786;2023-07-22T08:18:04;99194.78;;;33.00;100.00
7026;BME280;3554;42.132;24.786;2023-07-22T08:20:32;99185.97;;;33.24;100.00
7026;BME280;3554;42.132;24.786;2023-07-22T08:22:59;99178.91;;;33.16;100.00
7026;BME280;3554;42.132;24.786;2023-07-22T08:25:26;99183.03;;;33.25;100.00
7026;BME280;3554;42.132;24.786;2023-07-22T08:27:52;99180.94;;;33.53;100.00
7026;BME280;3554;42.132;24.786;2023-07-22T08:30:19;99181.13;;;33.59;100.00
7026;BME280;3554;42.132;24.786;2023-07-22T08:32:48;99171.25;;;33.71;100.00
7026;BME280;3554;42.132;24.786;2023-07-22T08:35:15;99172.31;;;33.63;100.00
7026;BME280;3554;42.132;24.786;2023-07-22T08:37:42;99169.88;;;33.35;100.00
7026;BME280;3554;42.132;24.786;2023-07-22T08:40:10;99152.34;;;33.44;100.00
7026;BME280;3554;42.132;24.786;2023-07-22T08:42:37;99157.72;;;33.58;100.00
7026;BME280;3554;42.132;24.786;2023-07-22T08:45:06;99163.97;;;33.71;100.00
7026;BME280;3554;42.132;24.786;2023-07-22T08:47:39;99151.97;;;33.08;100.00
7026;BME280;3554;42.132;24.786;2023-07-22T08:50:15;99166.97;;;33.50;100.00
7026;BME280;3554;42.132;24.786;2023-07-22T08:52:44;99156.03;;;33.70;100.00
7026;BME280;3554;42.132;24.786;2023-07-22T08:55:12;99156.44;;;33.67;100.00
7026;BME280;3554;42.132;24.786;2023-07-22T08:57:39;99134.72;;;33.67;100.00
7026;BME280;3554;42.132;24.786;2023-07-22T09:00:07;99156.13;;;34.01;100.00
7026;BME280;3554;42.132;24.786;2023-07-22T09:02:37;99156.50;;;34.42;100.00
7026;BME280;3554;42.132;24.786;2023-07-22T09:05:06;99150.69;;;34.01;100.00
7026;BME280;3554;42.132;24.786;2023-07-22T09:07:36;99145.53;;;34.24;100.00
7026;BME280;3554;42.132;24.786;2023-07-22T09:10:04;99153.09;;;34.53;100.00
7026;BME280;3554;42.132;24.786;2023-07-22T09:12:33;99152.81;;;34.61;100.00
7026;BME280;3554;42.132;24.786;2023-07-22T09:15:07;99153.66;;;34.86;97.71
7026;BME280;3554;42.132;24.786;2023-07-22T09:17:37;99156.53;;;34.91;100.00
7026;BME280;3554;42.132;24.786;2023-07-22T09:20:05;99132.66;;;34.44;100.00
7026;BME280;3554;42.132;24.786;2023-07-22T09:22:33;99146.31;;;34.31;100.00
7026;BME280;3554;42.132;24.786;2023-07-22T09:25:19;99147.06;;;34.13;100.00
7026;BME280;3554;42.132;24.786;2023-07-22T09:27:47;99146.41;;;34.18;100.00
7026;BME280;3554;42.132;24.786;2023-07-22T09:30:22;99145.03;;;34.65;100.00
7026;BME280;3554;42.132;24.786;2023-07-22T09:32:49;99129.84;;;34.26;100.00
7026;BME280;3554;42.132;24.786;2023-07-22T09:35:16;99130.66;;;34.58;100.00
7026;BME280;3554;42.132;24.786;2023-07-22T09:37:44;99121.63;;;34.88;97.21
7026;BME280;3554;42.132;24.786;2023-07-22T09:40:19;99088.00;;;34.58;100.00
7026;BME280;3554;42.132;24.786;2023-07-22T09:42:48;99121.50;;;34.77;100.00
7026;BME280;3554;42.132;24.786;2023-07-22T09:45:16;99119.13;;;34.87;100.00
7026;BME280;3554;42.132;24.786;2023-07-22T09:47:44;99120.19;;;35.10;100.00
7026;BME280;3554;42.132;24.786;2023-07-22T09:50:13;99099.16;;;35.17;100.00
7026;BME280;3554;42.132;24.786;2023-07-22T09:52:42;99097.50;;;35.16;100.00
7026;BME280;3554;42.132;24.786;2023-07-22T09:55:10;99102.31;;;35.14;100.00
7026;BME280;3554;42.132;24.786;2023-07-22T09:57:43;99102.63;;;35.06;99.66
7026;BME280;3554;42.132;24.786;2023-07-22T10:00:11;99104.22;;;35.14;100.00
7026;BME280;3554;42.132;24.786;2023-07-22T10:02:40;99093.94;;;35.16;100.00
7026;BME280;3554;42.132;24.786;2023-07-22T10:05:12;99093.63;;;34.81;100.00
7026;BME280;3554;42.132;24.786;2023-07-22T10:07:43;99080.63;;;34.34;100.00
7026;BME280;3554;42.132;24.786;2023-07-22T10:10:13;99069.59;;;34.53;100.00
7026;BME280;3554;42.132;24.786;2023-07-22T10:12:43;99080.16;;;34.93;100.00
7026;BME280;3554;42.132;24.786;2023-07-22T10:15:11;99069.06;;;34.94;100.00
7026;BME280;3554;42.132;24.786;2023-07-22T10:17:39;99081.28;;;35.21;100.00
7026;BME280;3554;42.132;24.786;2023-07-22T10:20:07;99074.81;;;35.22;99.06
7026;BME280;3554;42.132;24.786;2023-07-22T10:22:41;99058.28;;;35.35;95.80
7026;BME280;3554;42.132;24.786;2023-07-22T10:25:08;99075.63;;;35.59;96.15
7026;BME280;3554;42.132;24.786;2023-07-22T10:27:36;99072.25;;;35.45;91.45
7026;BME280;3554;42.132;24.786;2023-07-22T10:30:07;99079.88;;;35.37;88.52
7026;BME280;3554;42.132;24.786;2023-07-22T10:32:38;99082.78;;;35.42;90.12
7026;BME280;3554;42.132;24.786;2023-07-22T10:35:08;99066.34;;;34.94;93.00
7026;BME280;3554;42.132;24.786;2023-07-22T10:37:37;99049.22;;;35.05;93.57
7026;BME280;3554;42.132;24.786;2023-07-22T10:40:18;99081.84;;;35.12;91.96
7026;BME280;3554;42.132;24.786;2023-07-22T10:42:57;99049.19;;;35.12;90.09
7026;BME280;3554;42.132;24.786;2023-07-22T10:45:30;99037.97;;;35.02;93.63
7026;BME280;3554;42.132;24.786;2023-07-22T10:48:02;99061.19;;;35.22;90.43
7026;BME280;3554;42.132;24.786;2023-07-22T10:50:40;99043.25;;;35.33;89.47
7026;BME280;3554;42.132;24.786;2023-07-22T10:53:10;99016.81;;;35.04;90.09
7026;BME280;3554;42.132;24.786;2023-07-22T10:58:55;99062.69;;;35.73;85.79
7026;BME280;3554;42.132;24.786;2023-07-22T11:01:24;99048.22;;;36.02;83.36
7026;BME280;3554;42.132;24.786;2023-07-22T11:04:11;99040.53;;;35.99;77.91
7026;BME280;3554;42.132;24.786;2023-07-22T11:06:39;99037.94;;;35.86;83.37
7026;BME280;3554;42.132;24.786;2023-07-22T11:09:06;99029.75;;;36.04;83.52
7026;BME280;3554;42.132;24.786;2023-07-22T11:11:35;99023.06;;;35.88;80.61
7026;BME280;3554;42.132;24.786;2023-07-22T11:14:13;99018.63;;;35.28;86.66
7026;BME280;3554;42.132;24.786;2023-07-22T11:16:43;99028.31;;;35.72;82.56
7026;BME280;3554;42.132;24.786;2023-07-22T11:19:10;99041.72;;;36.03;78.95
7026;BME280;3554;42.132;24.786;2023-07-22T11:21:37;99023.94;;;36.00;75.61
7026;BME280;3554;42.132;24.786;2023-07-22T11:24:05;99015.56;;;36.13;74.69
7026;BME280;3554;42.132;24.786;2023-07-22T11:26:32;99018.69;;;36.40;73.24
7026;BME280;3554;42.132;24.786;2023-07-22T11:28:59;99019.50;;;36.40;73.72
7026;BME280;3554;42.132;24.786;2023-07-22T11:31:31;98978.31;;;36.07;72.68
7026;BME280;3554;42.132;24.786;2023-07-22T11:33:59;99004.56;;;36.66;74.73
7026;BME280;3554;42.132;24.786;2023-07-22T11:36:26;99002.34;;;36.86;73.57
7026;BME280;3554;42.132;24.786;2023-07-22T11:38:53;99004.94;;;36.81;73.88
7026;BME280;3554;42.132;24.786;2023-07-22T11:41:20;98993.31;;;36.74;71.57
7026;BME280;3554;42.132;24.786;2023-07-22T11:43:47;98996.97;;;36.56;70.44
7026;BME280;3554;42.132;24.786;2023-07-22T11:46:14;98990.41;;;36.23;69.64
7026;BME280;3554;42.132;24.786;2023-07-22T11:48:49;98991.88;;;36.37;68.00
7026;BME280;3554;42.132;24.786;2023-07-22T11:51:20;99001.00;;;36.42;65.93
7026;BME280;3554;42.132;24.786;2023-07-22T11:53:47;98996.63;;;36.53;66.36
7026;BME280;3554;42.132;24.786;2023-07-22T11:56:20;98991.06;;;36.60;66.94
7026;BME280;3554;42.132;24.786;2023-07-22T11:58:50;98958.31;;;36.60;65.29
7026;BME280;3554;42.132;24.786;2023-07-22T12:01:17;98979.19;;;36.66;62.27
7026;BME280;3554;42.132;24.786;2023-07-22T12:03:45;98993.66;;;36.89;61.95
7026;BME280;3554;42.132;24.786;2023-07-22T12:06:13;98980.81;;;37.01;62.49
7026;BME280;3554;42.132;24.786;2023-07-22T12:08:45;98984.91;;;37.15;60.35
7026;BME280;3554;42.132;24.786;2023-07-22T12:11:16;98983.19;;;36.98;60.16
7026;BME280;3554;42.132;24.786;2023-07-22T12:13:44;98983.69;;;36.95;60.12
7026;BME280;3554;42.132;24.786;2023-07-22T12:16:12;98945.03;;;36.86;57.27
7026;BME280;3554;42.132;24.786;2023-07-22T12:18:43;98971.41;;;37.20;59.95
7026;BME280;3554;42.132;24.786;2023-07-22T12:21:10;98974.66;;;37.45;60.18
7026;BME280;3554;42.132;24.786;2023-07-22T12:23:38;98975.00;;;36.98;66.59
7026;BME280;3554;42.132;24.786;2023-07-22T12:26:06;98969.63;;;37.14;59.94
7026;BME280;3554;42.132;24.786;2023-07-22T12:28:33;98960.25;;;37.10;63.79
7026;BME280;3554;42.132;24.786;2023-07-22T12:31:00;98958.53;;;36.93;60.81
7026;BME280;3554;42.132;24.786;2023-07-22T12:33:27;98969.28;;;36.99;61.66
7026;BME280;3554;42.132;24.786;2023-07-22T12:35:55;98952.31;;;37.09;62.50
7026;BME280;3554;42.132;24.786;2023-07-22T12:38:22;98958.59;;;37.09;62.72
7026;BME280;3554;42.132;24.786;2023-07-22T12:40:49;98953.72;;;37.11;63.79
7026;BME280;3554;42.132;24.786;2023-07-22T12:43:17;98952.09;;;36.99;62.76
7026;BME280;3554;42.132;24.786;2023-07-22T12:45:44;98945.56;;;37.00;61.14
7026;BME280;3554;42.132;24.786;2023-07-22T12:48:11;98946.19;;;36.90;59.83
7026;BME280;3554;42.132;24.786;2023-07-22T12:50:38;98946.50;;;37.05;59.36
7026;BME280;3554;42.132;24.786;2023-07-22T12:53:04;98942.66;;;37.29;58.25
7026;BME280;3554;42.132;24.786;2023-07-22T12:55:31;98936.75;;;37.09;58.38
7026;BME280;3554;42.132;24.786;2023-07-22T12:57:58;98920.81;;;37.29;58.95
7026;BME280;3554;42.132;24.786;2023-07-22T13:00:27;98908.28;;;37.33;60.31
7026;BME280;3554;42.132;24.786;2023-07-22T13:02:54;98917.50;;;37.44;59.56
7026;BME280;3554;42.132;24.786;2023-07-22T13:05:25;98927.47;;;37.50;57.39
7026;BME280;3554;42.132;24.786;2023-07-22T13:07:52;98922.34;;;37.53;57.96
7026;BME280;3554;42.132;24.786;2023-07-22T13:10:19;98920.34;;;37.66;58.75